KSOP/SOP METAR and TAF weather

Enter ICAO airport designator
Station Type Date Time Source
KSOP METAR 2020/09/25 06:56 UTC NOAA

KSOP 250656Z AUTO 02004KT 9SM -RA BKN042 BKN049 OVC085 17/16 A3008 RMK AO2 RAE13B32 SLP187 P0000 T01720161


Station Type Date Time Source
KSOP Decoded METAR 2020/09/25 06:56 UTC NOAA

Pinehurst/Southern Pines, Moore County Airport, NC, United States (KSOP) 35-14N 079-24W
Sep 25, 2020 - 02:56 AM EDT / 2020.09.25 0656 UTC
Wind: from the NNE (020 degrees) at 5 MPH (4 KT):0
Visibility: 9 mile(s):0
Sky conditions: overcast
Weather: light rain
Precipitation last hour: A trace
Temperature: 63.0 F (17.2 C)
Dew Point: 61.0 F (16.1 C)
Relative Humidity: 93%
Pressure (altimeter): 30.08 in. Hg (1018 hPa)
ob: KSOP 250656Z AUTO 02004KT 9SM -RA BKN042 BKN049 OVC085 17/16 A3008 RMK AO2 RAE13B32 SLP187 P0000 T01720161
cycle: 7

Station Type Date Time Source
KSOP TAF UTC NOAA

Error!

Example: see airport list